Time;durP1;ratioP1;P1;durP2;ratioP2;P2;SDS_P1;SDS_P2;PMS_P1;PMS_P2;Temp;Humidity;BMP_temperature;BMP_pressure;BME280_temperature;BME280_humidity;BME280_pressure;Samples;Min_cycle;Max_cycle;Signal;HPM_P1;HPM_P2
2022/04/27 00:00:44;;;;;;;6.55;3.90;;;18.20;89.60;;;;;;5035763;28;20102;-74
2022/04/27 00:03:12;;;;;;;12.10;4.95;;;18.20;89.60;;;;;;5036073;28;20072;-73
2022/04/27 00:05:40;;;;;;;8.88;5.20;;;18.10;89.60;;;;;;5052529;28;20499;-73
2022/04/27 00:08:07;;;;;;;8.07;4.20;;;18.10;89.80;;;;;;5036340;28;20383;-73
2022/04/27 00:10:35;;;;;;;7.43;4.03;;;18.00;90.00;;;;;;5035727;28;20083;-74
2022/04/27 00:13:02;;;;;;;6.65;3.88;;;18.00;90.00;;;;;;5035708;28;20040;-74
2022/04/27 00:15:30;;;;;;;8.25;3.60;;;17.90;90.10;;;;;;5019195;28;20483;-74
2022/04/27 00:17:58;;;;;;;9.55;4.25;;;17.90;90.30;;;;;;5037688;28;20040;-74
2022/04/27 00:20:25;;;;;;;9.23;4.40;;;17.90;90.60;;;;;;5056393;28;20791;-74
2022/04/27 00:22:53;;;;;;;7.65;4.30;;;17.80;90.70;;;;;;5056191;28;20052;-74
2022/04/27 00:25:21;;;;;;;7.18;4.53;;;17.80;90.90;;;;;;5039549;28;20044;-74
2022/04/27 00:27:49;;;;;;;6.28;4.00;;;17.80;90.90;;;;;;5056101;28;20044;-73
2022/04/27 00:30:16;;;;;;;6.63;3.47;;;17.80;91.00;;;;;;5039319;28;20506;-74
2022/04/27 00:32:44;;;;;;;7.50;4.18;;;17.80;91.10;;;;;;5039718;28;20398;-74
2022/04/27 00:35:12;;;;;;;6.82;4.00;;;17.80;91.10;;;;;;5039342;28;20049;-73
2022/04/27 00:37:39;;;;;;;8.63;4.55;;;17.80;91.10;;;;;;5038852;28;20090;-74
2022/04/27 00:40:07;;;;;;;8.60;3.92;;;17.80;91.10;;;;;;5055309;28;20040;-74
2022/04/27 00:42:36;;;;;;;16.90;4.93;;;17.80;91.10;;;;;;5039629;28;20122;-74
2022/04/27 00:45:05;;;;;;;8.45;3.70;;;17.80;91.20;;;;;;5073686;28;20117;-73
2022/04/27 00:47:33;;;;;;;11.25;4.05;;;17.80;91.10;;;;;;5037187;28;20064;-75
2022/04/27 00:50:02;;;;;;;7.68;4.15;;;17.70;91.00;;;;;;5063697;28;20050;-75
2022/04/27 00:52:32;;;;;;;8.07;3.60;;;17.70;91.00;;;;;;5082187;28;20528;-74
2022/04/27 00:55:01;;;;;;;7.40;3.50;;;17.70;90.90;;;;;;5085145;28;20139;-75
2022/04/27 00:57:30;;;;;;;7.82;3.53;;;17.70;90.80;;;;;;5056121;28;20052;-75
2022/04/27 00:59:57;;;;;;;8.35;4.18;;;17.70;90.90;;;;;;5073320;28;20047;-74
2022/04/27 01:02:25;;;;;;;7.43;3.63;;;17.70;90.90;;;;;;5073336;28;20059;-74
2022/04/27 01:04:53;;;;;;;5.75;3.08;;;17.70;91.00;;;;;;5055333;28;20102;-75
2022/04/27 01:07:21;;;;;;;7.57;3.60;;;17.70;91.10;;;;;;5055490;28;20681;-74
2022/04/27 01:09:48;;;;;;;11.60;3.67;;;17.70;91.20;;;;;;5038750;28;20056;-74
2022/04/27 01:12:16;;;;;;;7.07;3.10;;;17.60;91.20;;;;;;5055279;28;20128;-74
2022/04/27 01:14:54;;;;;;;6.68;3.10;;;17.60;91.20;;;;;;5054981;28;20049;-75
2022/04/27 01:17:22;;;;;;;8.35;3.55;;;17.60;91.20;;;;;;5055251;28;20040;-74
2022/04/27 01:19:51;;;;;;;8.57;3.53;;;17.60;91.10;;;;;;5055617;28;20036;-74
2022/04/27 01:22:19;;;;;;;6.15;3.20;;;17.50;91.00;;;;;;5038673;28;20052;-74
2022/04/27 01:24:47;;;;;;;6.18;3.92;;;17.50;90.90;;;;;;5055145;28;20052;-74
2022/04/27 01:27:15;;;;;;;8.57;3.97;;;17.50;90.90;;;;;;5038109;28;20445;-74
2022/04/27 01:29:43;;;;;;;7.03;3.85;;;17.40;90.90;;;;;;5037246;28;20053;-75
2022/04/27 01:32:11;;;;;;;10.68;5.65;;;17.40;90.90;;;;;;5055007;28;20047;-74
2022/04/27 01:34:38;;;;;;;11.02;4.68;;;17.40;91.00;;;;;;5038545;28;20437;-74
2022/04/27 01:39:52;;;;;;;8.25;4.28;;;17.40;91.20;;;;;;5055049;28;20102;-74
2022/04/27 01:42:20;;;;;;;7.93;3.58;;;17.40;91.30;;;;;;5054924;28;20051;-74
2022/04/27 01:44:48;;;;;;;14.15;4.75;;;17.40;91.30;;;;;;5038446;28;20071;-74
2022/04/27 01:47:15;;;;;;;12.00;5.03;;;17.30;91.40;;;;;;5055080;28;20064;-74
2022/04/27 01:49:43;;;;;;;7.85;3.67;;;17.30;91.50;;;;;;5055049;28;20068;-74
2022/04/27 01:54:56;;;;;;;9.60;4.70;;;17.20;91.50;;;;;;5054369;28;20139;-75
2022/04/27 01:57:26;;;;;;;7.80;3.92;;;17.20;91.50;;;;;;5037918;28;20048;-75
2022/04/27 01:59:55;;;;;;;8.32;4.35;;;17.20;91.60;;;;;;5038007;28;20459;-74
2022/04/27 02:02:23;;;;;;;7.45;3.65;;;17.10;91.70;;;;;;5054625;28;20044;-74
2022/04/27 02:04:54;;;;;;;10.85;5.40;;;17.10;91.70;;;;;;5054184;28;20446;-74
2022/04/27 02:07:22;;;;;;;10.65;5.68;;;17.10;91.60;;;;;;5071152;28;20036;-74
2022/04/27 02:09:50;;;;;;;8.95;4.82;;;17.00;91.50;;;;;;5037109;28;20139;-74
2022/04/27 02:12:18;;;;;;;11.20;5.07;;;17.00;91.60;;;;;;5037560;28;20498;-74
2022/04/27 02:14:54;;;;;;;10.50;4.40;;;17.00;91.60;;;;;;5054259;28;20044;-74
2022/04/27 02:17:22;;;;;;;6.03;3.85;;;17.00;91.70;;;;;;5053909;28;20045;-74
2022/04/27 02:19:49;;;;;;;8.40;4.13;;;16.90;91.70;;;;;;5021556;28;20060;-74
2022/04/27 02:22:18;;;;;;;9.55;3.28;;;16.90;91.80;;;;;;5053844;28;20049;-74
2022/04/27 02:24:45;;;;;;;6.97;3.10;;;16.90;91.90;;;;;;5037638;28;20052;-74
2022/04/27 02:27:14;;;;;;;6.95;3.47;;;16.90;91.90;;;;;;5070317;28;20525;-74
2022/04/27 02:29:42;;;;;;;9.50;3.72;;;16.90;91.90;;;;;;5053911;28;20076;-74
2022/04/27 02:32:19;;;;;;;6.00;3.28;;;16.90;92.00;;;;;;5054036;28;20091;-74
2022/04/27 02:34:48;;;;;;;8.50;4.55;;;16.90;92.10;;;;;;5070294;28;20120;-74
2022/04/27 02:37:15;;;;;;;9.23;3.65;;;16.90;92.20;;;;;;5037367;28;20048;-75
2022/04/27 02:39:44;;;;;;;10.93;4.70;;;16.90;92.30;;;;;;5052861;28;20056;-74
2022/04/27 02:42:12;;;;;;;8.40;4.30;;;16.90;92.50;;;;;;5053780;28;20437;-74
2022/04/27 02:44:40;;;;;;;7.68;4.50;;;16.90;92.60;;;;;;5053732;28;20055;-74
2022/04/27 02:47:08;;;;;;;10.48;4.90;;;16.80;92.80;;;;;;5037058;28;20090;-74
2022/04/27 02:52:22;;;;;;;7.05;3.53;;;16.80;92.50;;;;;;5036744;28;20048;-74
2022/04/27 02:55:16;;;;;;;9.15;4.80;;;16.80;92.60;;;;;;5036047;28;20056;-74
2022/04/27 02:57:44;;;;;;;9.13;4.40;;;16.80;92.70;;;;;;5052626;28;20439;-74
2022/04/27 03:00:11;;;;;;;8.90;4.40;;;16.80;92.70;;;;;;5069477;28;20082;-74
2022/04/27 03:02:40;;;;;;;8.07;3.70;;;16.90;92.70;;;;;;5037072;28;20086;-74
2022/04/27 03:05:08;;;;;;;8.00;3.05;;;16.90;92.80;;;;;;5053123;28;20119;-74
2022/04/27 03:07:36;;;;;;;6.28;3.80;;;16.90;93.10;;;;;;5053632;28;20071;-74
2022/04/27 03:10:04;;;;;;;12.70;4.00;;;17.00;92.90;;;;;;5049585;28;20610;-75
2022/04/27 03:12:35;;;;;;;5.32;2.78;;;17.00;93.20;;;;;;5033690;28;20041;-74
2022/04/27 03:15:05;;;;;;;7.82;3.42;;;17.00;93.50;;;;;;5033145;28;20658;-74
2022/04/27 03:17:35;;;;;;;5.85;2.88;;;17.00;93.60;;;;;;5033094;28;20186;-74
2022/04/27 03:20:04;;;;;;;5.50;2.83;;;16.90;93.60;;;;;;5033386;28;20056;-74
2022/04/27 03:22:32;;;;;;;7.60;3.03;;;16.90;93.90;;;;;;5033500;28;20406;-74
2022/04/27 03:25:03;;;;;;;5.63;2.65;;;16.90;94.00;;;;;;5049336;28;20045;-74
2022/04/27 03:27:30;;;;;;;5.32;2.88;;;16.90;94.10;;;;;;5049567;28;20045;-74
2022/04/27 03:29:59;;;;;;;9.18;3.30;;;16.80;94.20;;;;;;5049383;28;20051;-75
2022/04/27 03:32:28;;;;;;;5.00;2.17;;;16.90;94.30;;;;;;5049433;28;20141;-74
2022/04/27 03:35:00;;;;;;;3.20;2.00;;;16.80;94.70;;;;;;5049090;28;20041;-74
2022/04/27 03:37:31;;;;;;;9.13;3.65;;;16.90;94.80;;;;;;5032541;28;20049;-75
2022/04/27 03:39:58;;;;;;;3.95;2.60;;;16.90;94.50;;;;;;5049429;28;20045;-75
2022/04/27 03:42:28;;;;;;;5.65;3.20;;;16.90;93.80;;;;;;5049790;28;20041;-73
2022/04/27 03:45:01;;;;;;;6.55;3.53;;;16.90;93.50;;;;;;5049355;28;20074;-75
2022/04/27 03:47:36;;;;;;;7.88;3.22;;;16.90;93.30;;;;;;5032519;28;20697;-74
2022/04/27 03:50:05;;;;;;;7.75;3.10;;;16.90;93.30;;;;;;5050475;28;20045;-74
2022/04/27 03:52:42;;;;;;;8.73;4.10;;;16.90;93.40;;;;;;5016960;28;20148;-74
2022/04/27 03:55:12;;;;;;;8.43;3.45;;;16.90;93.40;;;;;;5049248;28;21002;-75
2022/04/27 03:57:42;;;;;;;7.85;3.30;;;16.80;93.50;;;;;;5049163;28;20483;-74
2022/04/27 04:00:11;;;;;;;8.82;3.40;;;16.80;93.50;;;;;;5049218;28;20045;-74
2022/04/27 04:02:53;;;;;;;6.35;2.80;;;16.80;93.60;;;;;;5032184;28;20568;-74
2022/04/27 04:05:21;;;;;;;7.00;3.42;;;16.90;93.90;;;;;;5032850;28;20045;-74
2022/04/27 04:07:48;;;;;;;5.05;3.25;;;16.80;93.90;;;;;;5049081;28;20049;-75
2022/04/27 04:10:16;;;;;;;5.25;3.00;;;16.90;93.90;;;;;;5032193;28;20059;-74
2022/04/27 04:12:48;;;;;;;8.27;3.03;;;16.90;93.90;;;;;;5048305;28;20414;-74
2022/04/27 04:15:27;;;;;;;7.72;3.47;;;17.00;94.10;;;;;;5048873;28;20041;-75
2022/04/27 04:18:13;;;;;;;6.70;3.70;;;17.00;94.10;;;;;;5063229;28;20041;-75
2022/04/27 04:20:46;;;;;;;7.35;3.40;;;17.00;94.10;;;;;;5031659;28;20080;-75
2022/04/27 04:23:19;;;;;;;5.55;3.17;;;17.10;94.20;;;;;;5048554;28;20128;-74
2022/04/27 04:28:42;;;;;;;6.30;2.80;;;17.20;94.20;;;;;;5049134;28;20625;-74
2022/04/27 04:31:10;;;;;;;4.28;2.63;;;17.30;94.20;;;;;;5048767;28;20060;-74
2022/04/27 04:33:45;;;;;;;6.50;2.93;;;17.50;94.10;;;;;;5048943;28;20052;-74
2022/04/27 04:36:13;;;;;;;8.98;3.58;;;17.60;94.00;;;;;;5048836;28;20442;-74
2022/04/27 04:38:42;;;;;;;5.47;2.90;;;17.80;93.90;;;;;;5032302;28;20119;-74
2022/04/27 04:41:16;;;;;;;6.05;4.03;;;17.90;93.80;;;;;;5048910;28;20056;-74
2022/04/27 04:43:49;;;;;;;6.90;3.17;;;18.00;93.40;;;;;;5048661;28;20048;-74
2022/04/27 04:46:20;;;;;;;8.52;3.50;;;18.20;93.30;;;;;;5031787;28;20056;-74
2022/04/27 04:48:58;;;;;;;5.53;2.38;;;18.30;93.20;;;;;;5032181;28;20134;-75
2022/04/27 04:51:41;;;;;;;6.05;3.03;;;18.50;93.10;;;;;;5048695;28;20395;-74
2022/04/27 04:54:27;;;;;;;5.57;2.10;;;18.70;93.00;;;;;;5048825;28;20407;-74
2022/04/27 04:57:21;;;;;;;4.60;1.95;;;18.80;92.80;;;;;;5026245;28;20057;-73
2022/04/27 05:00:15;;;;;;;5.25;2.15;;;19.00;92.80;;;;;;5045160;28;20565;-74
2022/04/27 05:02:45;;;;;;;4.57;2.08;;;19.20;92.80;;;;;;5048799;28;20045;-75
2022/04/27 05:05:40;;;;;;;5.20;2.33;;;19.40;92.90;;;;;;5047553;28;20414;-73
2022/04/27 05:08:25;;;;;;;4.55;2.22;;;19.60;92.90;;;;;;5022171;28;20048;-74
2022/04/27 05:11:13;;;;;;;5.57;1.58;;;19.70;92.80;;;;;;5057996;28;20133;-75
2022/04/27 05:14:04;;;;;;;5.35;1.95;;;19.90;92.60;;;;;;5039066;28;20077;-74
2022/04/27 05:16:33;;;;;;;4.18;1.75;;;20.10;92.40;;;;;;5073630;28;20383;-75
2022/04/27 05:19:17;;;;;;;3.63;1.77;;;20.20;92.30;;;;;;5024722;28;20079;-74
2022/04/27 05:22:14;;;;;;;5.00;2.00;;;20.40;92.20;;;;;;5037952;28;20048;-74
2022/04/27 05:25:10;;;;;;;6.60;1.73;;;20.60;91.90;;;;;;5023841;28;20125;-73
2022/04/27 05:27:54;;;;;;;5.93;1.45;;;20.80;91.80;;;;;;5054972;28;20044;-74
2022/04/27 05:33:44;;;;;;;4.60;1.65;;;21.00;91.20;;;;;;5055166;28;20123;-73
2022/04/27 05:36:17;;;;;;;6.18;1.80;;;21.20;90.80;;;;;;5055120;28;20044;-73
2022/04/27 05:38:57;;;;;;;4.68;2.35;;;21.30;90.40;;;;;;5053798;28;20040;-73
2022/04/27 05:41:34;;;;;;;2.95;1.58;;;21.40;90.00;;;;;;5055936;28;20039;-74
2022/04/27 05:44:31;;;;;;;2.47;1.30;;;21.50;89.30;;;;;;5037156;28;20174;-75
2022/04/27 05:47:25;;;;;;;3.65;1.42;;;21.60;88.50;;;;;;5054421;28;20045;-74
2022/04/27 05:50:21;;;;;;;5.97;1.95;;;21.70;88.10;;;;;;5041541;28;20040;-74
2022/04/27 05:53:05;;;;;;;6.13;1.50;;;21.70;87.70;;;;;;5038141;28;20151;-73
2022/04/27 05:55:59;;;;;;;11.38;3.05;;;21.80;88.20;;;;;;5041171;28;20067;-74
2022/04/27 05:58:39;;;;;;;4.30;1.73;;;21.90;87.60;;;;;;5072082;28;20052;-74
2022/04/27 06:01:24;;;;;;;4.82;2.10;;;22.00;86.80;;;;;;5038541;28;20049;-73
2022/04/27 06:04:03;;;;;;;3.47;1.83;;;22.10;86.40;;;;;;5039061;28;20518;-74
2022/04/27 06:06:35;;;;;;;3.90;1.88;;;22.20;86.10;;;;;;5054435;28;20048;-73
2022/04/27 06:09:06;;;;;;;5.07;1.92;;;22.40;85.70;;;;;;5054045;28;20056;-74
2022/04/27 06:11:47;;;;;;;4.75;1.92;;;22.50;85.30;;;;;;5037356;28;20048;-73
2022/04/27 06:14:33;;;;;;;4.75;2.35;;;22.70;84.60;;;;;;5039449;28;20095;-74
2022/04/27 06:17:02;;;;;;;5.05;2.35;;;22.90;83.10;;;;;;5054016;28;20041;-75
2022/04/27 06:19:30;;;;;;;4.70;2.30;;;22.90;81.30;;;;;;5054212;28;20563;-74
2022/04/27 06:22:00;;;;;;;4.50;1.95;;;23.00;80.80;;;;;;5037234;28;20041;-74
2022/04/27 06:24:31;;;;;;;5.22;1.58;;;23.10;80.90;;;;;;5037609;28;20515;-74
2022/04/27 06:27:17;;;;;;;3.50;1.92;;;23.10;80.30;;;;;;5022898;28;20140;-73
2022/04/27 06:29:46;;;;;;;6.35;2.80;;;23.20;80.00;;;;;;5036914;28;20094;-73
2022/04/27 06:32:14;;;;;;;6.47;3.08;;;23.30;79.90;;;;;;5070720;28;20118;-74
2022/04/27 06:34:42;;;;;;;4.15;2.38;;;23.40;80.00;;;;;;5036624;28;20495;-73
2022/04/27 06:37:10;;;;;;;6.85;2.97;;;23.50;80.30;;;;;;5036163;28;20575;-74
2022/04/27 06:39:43;;;;;;;4.70;2.42;;;23.50;80.50;;;;;;5036046;28;20052;-72
2022/04/27 06:42:11;;;;;;;4.53;2.22;;;23.60;80.00;;;;;;5036089;28;20110;-73
2022/04/27 06:45:03;;;;;;;5.10;2.22;;;23.70;78.60;;;;;;5052018;28;20080;-73
2022/04/27 06:47:49;;;;;;;6.63;2.03;;;23.70;77.70;;;;;;5038617;28;20052;-73
2022/04/27 06:50:52;;;;;;;5.25;2.20;;;23.70;76.80;;;;;;5000512;28;20530;-74
2022/04/27 06:53:47;;;;;;;7.88;2.20;;;23.80;76.80;;;;;;5030872;28;20051;-74
2022/04/27 06:56:21;;;;;;;7.22;1.98;;;23.80;77.40;;;;;;5071233;28;20051;-74
2022/04/27 06:59:13;;;;;;;6.78;1.58;;;24.00;77.00;;;;;;5052993;28;20105;-73
2022/04/27 07:01:43;;;;;;;4.00;1.98;;;23.90;76.60;;;;;;5069283;28;20044;-73
2022/04/27 07:04:11;;;;;;;9.60;3.50;;;24.00;76.80;;;;;;5070861;28;20041;-74
2022/04/27 07:06:39;;;;;;;3.58;2.33;;;24.10;78.40;;;;;;5053472;28;20494;-73
2022/04/27 07:09:13;;;;;;;7.07;2.10;;;24.10;79.40;;;;;;5052020;28;20095;-73
2022/04/27 07:11:41;;;;;;;14.15;2.97;;;24.20;80.90;;;;;;5052680;28;20387;-75
2022/04/27 07:14:10;;;;;;;6.38;2.50;;;24.30;81.50;;;;;;5052541;28;20068;-74
2022/04/27 07:16:37;;;;;;;6.30;2.15;;;24.30;81.70;;;;;;5020035;28;20048;-74
2022/04/27 07:19:05;;;;;;;4.38;2.50;;;24.30;80.80;;;;;;5052292;28;20044;-75
2022/04/27 07:21:33;;;;;;;3.72;1.98;;;24.30;79.30;;;;;;5052696;28;20098;-74
2022/04/27 07:24:02;;;;;;;4.15;2.20;;;24.40;79.00;;;;;;5035849;28;20524;-74
2022/04/27 07:26:30;;;;;;;6.10;2.13;;;24.50;79.20;;;;;;5052412;28;20052;-73
2022/04/27 07:28:58;;;;;;;3.80;1.42;;;24.50;78.00;;;;;;5052295;28;20490;-74
2022/04/27 07:31:26;;;;;;;5.30;2.20;;;24.50;78.40;;;;;;5052746;28;20044;-74
2022/04/27 07:33:54;;;;;;;3.97;1.95;;;24.70;78.30;;;;;;5070116;28;20067;-74
2022/04/27 07:36:21;;;;;;;6.00;2.25;;;24.80;77.60;;;;;;5052256;28;20139;-74
2022/04/27 07:38:51;;;;;;;5.32;2.30;;;24.90;76.40;;;;;;5036026;28;20502;-72
2022/04/27 07:41:18;;;;;;;6.03;2.47;;;25.10;76.30;;;;;;5035784;28;20048;-73
2022/04/27 07:43:46;;;;;;;7.20;3.15;;;25.10;75.90;;;;;;5036411;28;20056;-74
2022/04/27 07:46:13;;;;;;;7.22;1.50;;;25.30;76.40;;;;;;5036054;28;20040;-74
2022/04/27 07:48:41;;;;;;;7.28;1.95;;;25.40;76.70;;;;;;5052587;28;20044;-74
2022/04/27 07:51:09;;;;;;;5.10;1.92;;;25.50;76.40;;;;;;5035196;28;20160;-73
2022/04/27 07:53:36;;;;;;;5.05;2.05;;;25.60;75.10;;;;;;5052418;28;20566;-73
2022/04/27 07:56:05;;;;;;;6.50;1.73;;;25.70;75.20;;;;;;5051838;28;20494;-74
2022/04/27 07:58:32;;;;;;;4.95;2.00;;;25.70;73.80;;;;;;5051631;28;20044;-74
2022/04/27 08:01:01;;;;;;;7.65;2.03;;;25.50;73.70;;;;;;5051914;28;20045;-74
2022/04/27 08:03:29;;;;;;;3.67;1.92;;;25.50;74.10;;;;;;5035557;28;20048;-74
2022/04/27 08:05:57;;;;;;;3.70;1.60;;;25.40;73.60;;;;;;5019453;28;20052;-73
2022/04/27 08:08:24;;;;;;;4.70;1.67;;;25.40;73.20;;;;;;5052638;28;20082;-73
2022/04/27 08:10:54;;;;;;;5.10;1.90;;;25.50;73.60;;;;;;5052152;28;20402;-73
2022/04/27 08:13:22;;;;;;;3.45;1.60;;;25.50;73.00;;;;;;5070172;28;20080;-73
2022/04/27 08:15:50;;;;;;;7.03;2.40;;;25.50;72.50;;;;;;5036018;28;20125;-73
2022/04/27 08:18:19;;;;;;;4.28;1.40;;;25.50;72.90;;;;;;5052373;28;20033;-73
2022/04/27 08:23:34;;;;;;;5.13;2.00;;;25.70;71.40;;;;;;5052242;28;20050;-73
2022/04/27 08:26:04;;;;;;;3.45;1.80;;;25.70;70.70;;;;;;5035957;28;20486;-73
2022/04/27 08:28:32;;;;;;;3.78;1.60;;;25.80;70.80;;;;;;5019397;28;20052;-73
2022/04/27 08:31:00;;;;;;;4.43;1.42;;;25.80;70.90;;;;;;5051743;28;20044;-73
2022/04/27 08:33:28;;;;;;;5.15;1.40;;;25.80;70.90;;;;;;5070331;28;20063;-74
2022/04/27 08:36:00;;;;;;;3.78;1.45;;;25.90;70.80;;;;;;5051761;28;20128;-73
2022/04/27 08:38:47;;;;;;;5.32;1.65;;;25.90;69.90;;;;;;5053357;28;20131;-73
2022/04/27 08:41:15;;;;;;;2.28;1.48;;;25.90;70.80;;;;;;5038859;28;20561;-73
2022/04/27 08:43:42;;;;;;;2.30;1.27;;;25.90;70.30;;;;;;5056146;28;20040;-74
2022/04/27 08:46:14;;;;;;;3.63;1.77;;;25.70;70.20;;;;;;5056370;28;20086;-73
2022/04/27 08:48:49;;;;;;;1.98;1.20;;;25.80;69.60;;;;;;5039015;28;20094;-74
2022/04/27 08:51:17;;;;;;;3.72;1.50;;;25.90;69.60;;;;;;5038783;28;20060;-74
2022/04/27 08:53:45;;;;;;;3.00;1.30;;;25.70;69.50;;;;;;5071772;28;20379;-74
2022/04/27 08:56:16;;;;;;;6.28;2.08;;;25.70;70.10;;;;;;5072379;28;20056;-73
2022/04/27 08:58:44;;;;;;;4.32;1.90;;;25.80;70.20;;;;;;5055319;28;20498;-73
2022/04/27 09:01:12;;;;;;;2.47;1.13;;;25.80;70.00;;;;;;5072746;28;20040;-73
2022/04/27 09:03:41;;;;;;;2.03;1.08;;;25.90;69.70;;;;;;5054782;28;20699;-72
2022/04/27 09:06:11;;;;;;;1.73;1.13;;;25.90;68.70;;;;;;5054075;28;20060;-72
2022/04/27 09:08:48;;;;;;;3.28;1.38;;;25.80;69.10;;;;;;5037527;28;20048;-72
2022/04/27 09:11:16;;;;;;;12.57;1.95;;;25.80;69.80;;;;;;5021607;28;20045;-73
2022/04/27 09:13:48;;;;;;;2.83;1.27;;;25.80;69.80;;;;;;5054481;28;20052;-72
2022/04/27 09:16:18;;;;;;;3.17;1.25;;;25.80;70.20;;;;;;5054006;28;20067;-73
2022/04/27 09:22:04;;;;;;;1.92;1.15;;;25.80;70.00;;;;;;5037820;28;20052;-75
2022/04/27 09:24:49;;;;;;;7.80;1.55;;;25.60;69.70;;;;;;5054439;28;20049;-73
2022/04/27 09:27:24;;;;;;;4.03;1.60;;;25.50;70.30;;;;;;5038195;28;20078;-73
2022/04/27 09:29:59;;;;;;;;;;;25.60;70.30;;;;;;5071730;28;20067;-74
2022/04/27 09:32:28;;;;;;;5.38;1.90;;;25.60;69.70;;;;;;5054844;28;19928;-73
2022/04/27 09:34:56;;;;;;;4.82;1.90;;;25.80;69.60;;;;;;5053949;28;20044;-74
2022/04/27 09:37:25;;;;;;;2.83;1.58;;;25.70;70.00;;;;;;5054203;28;20064;-74
2022/04/27 09:40:01;;;;;;;2.50;1.20;;;25.80;70.60;;;;;;5054257;28;20089;-74
2022/04/27 09:42:37;;;;;;;4.68;1.65;;;25.80;69.70;;;;;;5070751;28;20106;-73
2022/04/27 09:45:18;;;;;;;3.78;1.30;;;25.80;69.00;;;;;;5054121;28;20036;-72
2022/04/27 09:48:01;;;;;;;4.45;1.50;;;25.60;68.60;;;;;;5037523;28;20076;-72
2022/04/27 09:50:55;;;;;;;6.13;1.63;;;25.50;69.10;;;;;;5053446;28;20049;-74
2022/04/27 09:53:22;;;;;;;2.78;1.08;;;25.50;69.30;;;;;;5054088;28;20055;-73
2022/04/27 09:55:54;;;;;;;2.08;1.17;;;25.50;69.60;;;;;;5036442;28;20490;-73
2022/04/27 09:58:26;;;;;;;3.72;2.00;;;25.60;69.90;;;;;;5037684;28;20098;-74
2022/04/27 10:00:57;;;;;;;3.58;1.23;;;25.60;70.20;;;;;;5037121;28;20540;-73
2022/04/27 10:03:25;;;;;;;4.43;1.65;;;25.70;70.10;;;;;;5037280;28;20048;-73
2022/04/27 10:05:54;;;;;;;3.65;1.40;;;25.90;70.10;;;;;;5053531;28;20037;-73
2022/04/27 10:08:23;;;;;;;2.88;1.17;;;25.90;69.80;;;;;;5053874;28;20102;-73
2022/04/27 10:10:52;;;;;;;7.28;1.48;;;26.00;70.20;;;;;;5054192;28;20048;-74
2022/04/27 10:13:25;;;;;;;3.90;1.08;;;26.00;70.90;;;;;;5053638;28;20509;-73
2022/04/27 10:15:53;;;;;;;2.40;1.00;;;25.90;70.40;;;;;;5071358;28;20086;-73
2022/04/27 10:18:21;;;;;;;4.63;1.50;;;25.90;70.40;;;;;;5071085;28;20044;-74
2022/04/27 10:20:51;;;;;;;3.38;1.25;;;25.60;70.40;;;;;;5036668;28;20059;-73
2022/04/27 10:23:22;;;;;;;3.10;1.23;;;25.40;70.30;;;;;;5053194;28;20117;-73
2022/04/27 10:26:17;;;;;;;2.20;1.27;;;25.40;70.60;;;;;;5052667;28;20233;-73
2022/04/27 10:28:51;;;;;;;1.83;1.40;;;25.40;70.70;;;;;;5052282;28;20051;-74
2022/04/27 10:31:41;;;;;;;5.57;2.13;;;25.40;70.30;;;;;;5035908;28;20498;-73
2022/04/27 10:34:17;;;;;;;2.78;1.13;;;25.50;70.30;;;;;;5036381;28;20057;-72
2022/04/27 10:36:53;;;;;;;3.72;1.30;;;25.50;70.00;;;;;;5035984;28;20147;-73
2022/04/27 10:39:26;;;;;;;2.55;0.98;;;25.60;70.10;;;;;;5020171;28;20049;-72
2022/04/27 10:42:17;;;;;;;2.80;1.35;;;25.60;70.00;;;;;;5053036;28;20193;-73
2022/04/27 10:44:51;;;;;;;4.88;1.40;;;25.60;70.50;;;;;;5036103;28;20461;-73
2022/04/27 10:47:20;;;;;;;8.00;1.52;;;25.50;70.00;;;;;;5036525;28;20059;-73
2022/04/27 10:50:08;;;;;;;3.30;1.40;;;25.50;69.20;;;;;;5019774;28;20055;-73
2022/04/27 10:52:52;;;;;;;4.18;1.20;;;25.60;69.70;;;;;;5052306;28;20401;-73
2022/04/27 10:55:35;;;;;;;3.53;1.13;;;25.50;69.30;;;;;;5019456;28;20473;-74
2022/04/27 10:58:22;;;;;;;1.85;1.10;;;25.50;69.90;;;;;;5052702;28;20518;-73
2022/04/27 11:01:01;;;;;;;6.30;1.33;;;25.60;69.90;;;;;;5035195;28;20094;-74
2022/04/27 11:03:35;;;;;;;2.22;1.00;;;25.60;68.70;;;;;;5051931;28;20518;-74
2022/04/27 11:06:09;;;;;;;9.05;1.90;;;25.70;69.50;;;;;;5052397;28;20052;-74
2022/04/27 11:08:40;;;;;;;3.03;1.17;;;25.50;69.10;;;;;;5068521;28;20044;-75
2022/04/27 11:11:09;;;;;;;2.17;0.93;;;25.40;68.70;;;;;;5051872;28;20060;-75
2022/04/27 11:13:37;;;;;;;3.95;1.00;;;25.30;68.70;;;;;;5068379;28;20051;-75
2022/04/27 11:16:12;;;;;;;2.17;1.38;;;25.40;68.60;;;;;;5051987;28;20068;-72
2022/04/27 11:18:59;;;;;;;2.73;1.10;;;25.40;69.00;;;;;;5051722;28;20490;-73
2022/04/27 11:21:30;;;;;;;2.25;1.02;;;25.40;68.90;;;;;;5052027;28;20118;-73
2022/04/27 11:23:58;;;;;;;2.45;1.17;;;25.50;68.80;;;;;;5051951;28;20040;-74
2022/04/27 11:26:26;;;;;;;3.28;1.02;;;25.40;68.20;;;;;;5034784;28;20093;-73
2022/04/27 11:28:54;;;;;;;1.95;1.08;;;25.40;69.00;;;;;;5051384;28;20102;-73
2022/04/27 11:31:22;;;;;;;2.67;1.35;;;25.50;69.70;;;;;;5051862;28;20052;-74
2022/04/27 11:33:50;;;;;;;2.55;1.10;;;25.50;68.60;;;;;;5035195;28;20072;-74
2022/04/27 11:36:23;;;;;;;2.92;1.55;;;25.60;68.90;;;;;;5019289;28;20501;-73
2022/04/27 11:38:52;;;;;;;3.40;1.30;;;25.60;68.20;;;;;;5051144;28;20055;-73
2022/04/27 11:41:24;;;;;;;3.35;1.52;;;25.50;68.20;;;;;;5069008;28;20143;-73
2022/04/27 11:43:55;;;;;;;5.15;1.20;;;25.40;68.30;;;;;;5035146;28;20175;-75
2022/04/27 11:46:35;;;;;;;1.90;0.95;;;25.40;68.90;;;;;;5051747;28;20048;-74
2022/04/27 11:49:02;;;;;;;4.68;1.95;;;25.30;68.40;;;;;;5051409;28;20072;-73
2022/04/27 11:51:36;;;;;;;2.10;1.02;;;25.20;69.00;;;;;;5034922;28;20105;-73
2022/04/27 11:54:03;;;;;;;3.45;1.30;;;25.20;68.80;;;;;;5051630;28;20051;-74
2022/04/27 11:56:41;;;;;;;2.10;1.13;;;25.10;68.60;;;;;;5051414;28;20044;-74
2022/04/27 11:59:09;;;;;;;3.42;1.20;;;25.10;68.70;;;;;;5034502;28;20083;-74
2022/04/27 12:01:36;;;;;;;2.42;1.00;;;25.10;68.30;;;;;;5034769;28;20044;-75
2022/04/27 12:04:05;;;;;;;3.38;1.17;;;25.10;69.00;;;;;;5051201;28;20049;-76
2022/04/27 12:06:34;;;;;;;3.50;1.33;;;25.10;68.80;;;;;;5017832;28;20056;-74
2022/04/27 12:09:02;;;;;;;3.35;1.02;;;25.20;68.60;;;;;;5047692;28;20068;-75
2022/04/27 12:11:30;;;;;;;4.53;1.42;;;25.20;68.10;;;;;;5047335;28;20491;-75
2022/04/27 12:13:58;;;;;;;3.88;1.38;;;25.10;68.60;;;;;;5047536;28;20045;-75
2022/04/27 12:16:30;;;;;;;2.63;1.63;;;25.10;68.70;;;;;;5031374;28;20052;-77
2022/04/27 12:18:59;;;;;;;1.95;1.20;;;25.10;68.00;;;;;;5047411;28;20048;-75
2022/04/27 12:21:28;;;;;;;3.30;1.15;;;25.00;67.90;;;;;;5047674;28;20406;-74
2022/04/27 12:23:56;;;;;;;2.47;1.02;;;24.80;68.00;;;;;;5049750;28;20594;-76
2022/04/27 12:26:26;;;;;;;1.60;0.90;;;24.80;68.30;;;;;;5048583;28;20495;-75
2022/04/27 12:28:54;;;;;;;2.72;1.23;;;24.80;68.20;;;;;;5047964;28;20052;-75
2022/04/27 12:31:26;;;;;;;2.05;1.05;;;24.90;68.00;;;;;;5031490;28;20127;-75
2022/04/27 12:33:59;;;;;;;3.47;1.10;;;24.80;68.10;;;;;;5031870;28;20052;-72
2022/04/27 12:39:20;;;;;;;3.22;1.42;;;24.60;68.50;;;;;;5031949;28;20052;-69
2022/04/27 12:41:50;;;;;;;2.38;1.10;;;24.60;68.60;;;;;;5047570;28;20522;-72
2022/04/27 12:44:25;;;;;;;2.95;1.10;;;24.60;68.30;;;;;;5049851;28;20438;-72
2022/04/27 12:47:03;;;;;;;3.10;1.08;;;24.60;68.70;;;;;;5048361;28;20689;-70
2022/04/27 12:49:32;;;;;;;3.28;1.67;;;24.60;68.40;;;;;;5032212;28;20110;-71
2022/04/27 12:52:23;;;;;;;2.47;1.20;;;24.60;68.30;;;;;;5032652;28;20060;-70
2022/04/27 12:55:02;;;;;;;2.85;1.50;;;24.60;68.40;;;;;;5048519;28;20503;-71
2022/04/27 12:57:44;;;;;;;2.60;1.20;;;24.50;67.90;;;;;;5048659;28;20048;-71
2022/04/27 13:00:13;;;;;;;2.22;1.27;;;24.60;68.40;;;;;;5048431;28;20432;-71
2022/04/27 13:02:41;;;;;;;2.00;1.40;;;24.60;67.90;;;;;;5049563;28;20044;-70
2022/04/27 13:05:09;;;;;;;2.08;0.90;;;24.60;67.90;;;;;;5048409;28;20057;-70
2022/04/27 13:07:37;;;;;;;2.42;1.10;;;24.50;67.60;;;;;;5048455;28;20155;-70
2022/04/27 13:12:52;;;;;;;2.60;1.00;;;24.40;67.80;;;;;;5048439;28;20060;-77
2022/04/27 13:15:21;;;;;;;3.55;1.25;;;24.30;68.20;;;;;;5064974;28;20052;-70
2022/04/27 13:17:50;;;;;;;1.77;0.95;;;24.40;68.40;;;;;;5047860;28;20041;-70
2022/04/27 13:20:18;;;;;;;4.75;1.33;;;24.40;68.90;;;;;;5064554;28;20045;-70
2022/04/27 13:22:46;;;;;;;1.75;1.00;;;24.40;68.20;;;;;;5049530;28;20040;-71
2022/04/27 13:25:14;;;;;;;2.38;1.33;;;24.50;68.10;;;;;;5048686;28;20049;-70
2022/04/27 13:27:41;;;;;;;4.40;1.30;;;24.50;68.10;;;;;;5018625;28;20091;-70
2022/04/27 13:30:10;;;;;;;2.40;0.90;;;24.50;68.20;;;;;;5068275;28;20517;-71
2022/04/27 13:32:38;;;;;;;2.63;0.98;;;24.40;67.80;;;;;;5051958;28;20048;-69
2022/04/27 13:35:07;;;;;;;2.65;1.88;;;24.40;68.00;;;;;;5051475;28;20049;-69
2022/04/27 13:37:35;;;;;;;1.92;0.98;;;24.40;68.20;;;;;;5051850;28;20064;-71